Time;durP1;ratioP1;P1;durP2;ratioP2;P2;SDS_P1;SDS_P2;PMS_P1;PMS_P2;Temp;Humidity;BMP_temperature;BMP_pressure;BME280_temperature;BME280_humidity;BME280_pressure;Samples;Min_cycle;Max_cycle;Signal;HPM_P1;HPM_P2
2022/03/17 00:00:55;;;;;;;37.77;34.37;;;9.00;99.90;;;;;;5049045;28;20676;-82
2022/03/17 00:03:21;;;;;;;38.37;35.33;;;9.40;99.90;;;;;;5046659;28;21478;-83
2022/03/17 00:05:50;;;;;;;38.40;35.30;;;9.20;99.90;;;;;;5057875;28;21043;-84
2022/03/17 00:08:17;;;;;;;38.70;35.20;;;9.10;99.90;;;;;;5055820;28;21181;-84
2022/03/17 00:10:44;;;;;;;38.50;35.33;;;9.10;99.90;;;;;;5047416;28;20726;-84
2022/03/17 00:13:12;;;;;;;38.33;35.00;;;9.00;99.90;;;;;;5052323;28;20633;-84
2022/03/17 00:15:40;;;;;;;35.93;32.93;;;8.80;99.90;;;;;;5046172;28;21238;-84
2022/03/17 00:18:07;;;;;;;36.20;33.23;;;9.20;99.90;;;;;;5047497;28;20668;-83
2022/03/17 00:20:34;;;;;;;36.37;33.27;;;9.10;99.90;;;;;;5047248;28;20661;-84
2022/03/17 00:23:02;;;;;;;38.40;35.10;;;9.00;99.90;;;;;;5050116;28;20618;-84
2022/03/17 00:25:30;;;;;;;35.20;32.30;;;8.70;99.90;;;;;;5048598;28;20665;-83
2022/03/17 00:27:57;;;;;;;33.83;30.93;;;8.70;99.90;;;;;;5060882;28;20664;-84
2022/03/17 00:30:24;;;;;;;35.30;32.37;;;8.90;99.90;;;;;;5045660;28;21212;-84
2022/03/17 00:32:51;;;;;;;34.87;31.90;;;8.90;99.90;;;;;;5049003;28;20617;-85
2022/03/17 00:35:36;;;;;;;34.33;31.53;;;8.60;99.90;;;;;;5051064;28;20658;-84
2022/03/17 00:38:08;;;;;;;36.33;33.30;;;8.80;99.90;;;;;;5047962;28;20625;-83
2022/03/17 00:40:36;;;;;;;36.70;33.60;;;8.70;99.90;;;;;;5047509;28;20662;-84
2022/03/17 00:43:03;;;;;;;37.37;34.27;;;9.10;99.90;;;;;;5049449;28;20633;-85
2022/03/17 00:45:30;;;;;;;36.00;32.87;;;9.30;99.90;;;;;;5043928;28;20669;-85
2022/03/17 00:47:57;;;;;;;37.10;34.00;;;8.90;99.90;;;;;;5056549;28;20628;-84
2022/03/17 00:50:25;;;;;;;37.30;34.10;;;9.00;99.90;;;;;;5047195;28;20700;-84
2022/03/17 00:52:52;;;;;;;37.60;34.40;;;8.70;99.90;;;;;;5046358;28;20724;-84
2022/03/17 00:55:20;;;;;;;37.27;34.13;;;8.90;99.90;;;;;;5050144;28;20622;-84
2022/03/17 00:57:48;;;;;;;36.37;32.97;;;8.90;99.90;;;;;;5056382;28;20630;-82
2022/03/17 01:00:16;;;;;;;36.20;33.20;;;9.00;99.90;;;;;;5044490;28;20673;-83
2022/03/17 01:02:43;;;;;;;37.97;34.70;;;8.80;99.90;;;;;;5049174;28;20637;-85
2022/03/17 01:05:11;;;;;;;35.60;32.50;;;8.70;99.90;;;;;;5040624;28;20750;-84
2022/03/17 01:07:38;;;;;;;35.77;32.80;;;8.70;99.90;;;;;;5045732;28;21351;-84
2022/03/17 01:10:06;;;;;;;35.77;32.73;;;8.90;99.90;;;;;;5037798;28;20738;-84
2022/03/17 01:12:35;;;;;;;37.83;34.67;;;8.70;99.90;;;;;;5046503;28;20608;-85
2022/03/17 01:15:03;;;;;;;35.67;32.47;;;8.30;99.90;;;;;;5043857;28;20999;-84
2022/03/17 01:17:30;;;;;;;36.60;33.50;;;8.60;99.90;;;;;;5044496;28;21019;-84
2022/03/17 01:19:56;;;;;;;37.03;34.00;;;8.70;99.90;;;;;;5042413;28;20653;-84
2022/03/17 01:22:23;;;;;;;36.90;33.80;;;9.00;99.90;;;;;;5041752;28;20631;-84
2022/03/17 01:24:51;;;;;;;38.30;34.90;;;8.90;99.90;;;;;;5049151;28;20681;-84
2022/03/17 01:27:20;;;;;;;35.73;32.63;;;8.30;99.90;;;;;;5041990;28;20636;-83
2022/03/17 01:29:48;;;;;;;35.63;32.33;;;8.70;99.90;;;;;;5045231;28;21014;-83
2022/03/17 01:32:15;;;;;;;36.40;33.20;;;8.60;99.90;;;;;;5045967;28;21171;-84
2022/03/17 01:34:41;;;;;;;36.77;33.83;;;8.60;99.90;;;;;;5051642;28;20614;-84
2022/03/17 01:37:08;;;;;;;34.37;31.43;;;8.50;99.90;;;;;;5044001;28;20637;-83
2022/03/17 01:39:38;;;;;;;37.53;34.37;;;8.50;99.90;;;;;;5040648;28;20727;-84
2022/03/17 01:42:07;;;;;;;35.93;32.83;;;8.30;99.90;;;;;;5045504;28;20639;-85
2022/03/17 01:44:34;;;;;;;34.87;31.93;;;8.30;99.90;;;;;;5046308;28;20669;-83
2022/03/17 01:49:47;;;;;;;38.10;34.90;;;8.30;99.90;;;;;;5042966;28;21238;-84
2022/03/17 01:52:14;;;;;;;36.07;32.90;;;8.30;99.90;;;;;;5048300;28;21556;-84
2022/03/17 01:54:43;;;;;;;39.17;35.77;;;8.30;99.90;;;;;;5044992;28;20624;-83
2022/03/17 01:57:10;;;;;;;35.77;32.87;;;8.20;99.90;;;;;;5044874;28;20641;-82
2022/03/17 01:59:39;;;;;;;37.13;34.13;;;7.80;99.90;;;;;;5048552;28;21643;-84
2022/03/17 02:02:09;;;;;;;38.30;35.10;;;8.20;99.90;;;;;;5046622;28;20634;-83
2022/03/17 02:04:36;;;;;;;38.20;35.00;;;8.10;99.90;;;;;;5046551;28;20633;-85
2022/03/17 02:07:04;;;;;;;40.33;37.00;;;7.50;99.90;;;;;;5044832;28;20695;-84
2022/03/17 02:09:30;;;;;;;42.10;38.50;;;8.20;99.90;;;;;;5043603;28;20713;-83
2022/03/17 02:14:53;;;;;;;39.37;36.17;;;8.30;99.90;;;;;;5041618;28;20601;-83
2022/03/17 02:17:22;;;;;;;39.10;35.90;;;8.00;99.90;;;;;;5047885;28;20736;-84
2022/03/17 02:19:49;;;;;;;39.07;35.60;;;7.80;99.90;;;;;;5044071;28;20645;-83
2022/03/17 02:22:19;;;;;;;37.60;34.40;;;7.80;99.90;;;;;;5041496;28;20630;-83
2022/03/17 02:27:38;;;;;;;40.30;36.70;;;7.90;99.90;;;;;;5040416;28;20933;-84
2022/03/17 02:30:06;;;;;;;39.00;35.70;;;7.60;99.90;;;;;;5048177;28;20667;-85
2022/03/17 02:32:33;;;;;;;41.03;37.43;;;7.90;99.90;;;;;;5045178;28;20622;-84
2022/03/17 02:35:04;;;;;;;40.30;36.90;;;8.10;99.90;;;;;;5043453;28;21391;-84
2022/03/17 02:37:31;;;;;;;40.40;36.83;;;8.00;99.90;;;;;;5044040;28;20649;-83
2022/03/17 02:40:00;;;;;;;40.47;37.17;;;8.00;99.90;;;;;;5042641;28;20669;-83
2022/03/17 02:42:30;;;;;;;41.47;37.87;;;8.20;99.90;;;;;;5041818;28;20644;-84
2022/03/17 02:44:58;;;;;;;43.43;39.73;;;7.40;99.90;;;;;;5048157;28;20653;-84
2022/03/17 02:47:27;;;;;;;40.50;36.93;;;8.20;99.90;;;;;;5037770;28;20641;-84
2022/03/17 02:49:55;;;;;;;43.63;39.73;;;7.90;99.90;;;;;;5047608;28;21110;-83
2022/03/17 02:52:23;;;;;;;42.37;38.67;;;7.90;99.90;;;;;;5043080;28;20657;-83
2022/03/17 02:54:50;;;;;;;41.83;38.33;;;8.10;99.90;;;;;;5057167;28;20624;-83
2022/03/17 02:57:19;;;;;;;39.67;36.27;;;8.10;99.90;;;;;;5052874;28;20642;-83
2022/03/17 02:59:48;;;;;;;42.43;38.83;;;7.90;99.90;;;;;;5053314;28;20671;-83
2022/03/17 03:02:15;;;;;;;41.60;38.00;;;7.50;99.90;;;;;;5054416;28;20666;-83
2022/03/17 03:04:42;;;;;;;47.67;43.30;;;7.80;99.90;;;;;;5055827;28;20621;-83
2022/03/17 03:07:09;;;;;;;41.80;38.13;;;7.60;99.90;;;;;;5053946;28;20632;-83
2022/03/17 03:09:36;;;;;;;43.87;39.97;;;7.90;99.90;;;;;;5049804;28;20649;-83
2022/03/17 03:12:04;;;;;;;42.87;39.30;;;7.60;99.90;;;;;;5052007;28;21222;-83
2022/03/17 03:14:34;;;;;;;40.23;36.50;;;7.80;99.90;;;;;;5051969;28;20621;-83
2022/03/17 03:17:01;;;;;;;40.47;37.07;;;8.00;99.90;;;;;;5050535;28;21038;-83
2022/03/17 03:19:28;;;;;;;41.90;38.20;;;7.90;99.90;;;;;;5056971;28;20622;-83
2022/03/17 03:21:55;;;;;;;42.00;38.37;;;7.90;99.90;;;;;;5055321;28;20652;-83
2022/03/17 03:24:23;;;;;;;40.10;36.40;;;7.90;99.90;;;;;;5058194;28;21436;-85
2022/03/17 03:26:51;;;;;;;39.57;36.07;;;8.00;99.90;;;;;;5051623;28;20669;-83
2022/03/17 03:29:21;;;;;;;38.80;35.50;;;7.80;99.90;;;;;;5050363;28;20641;-84
2022/03/17 03:31:50;;;;;;;43.00;39.30;;;7.50;99.90;;;;;;5060143;28;20685;-85
2022/03/17 03:34:18;;;;;;;41.27;37.83;;;7.50;99.90;;;;;;5048168;28;20631;-82
2022/03/17 03:39:29;;;;;;;40.30;36.70;;;8.00;99.90;;;;;;5043141;28;20760;-85
2022/03/17 03:41:56;;;;;;;41.10;37.43;;;7.90;99.90;;;;;;5050376;28;20751;-84
2022/03/17 03:44:23;;;;;;;37.80;34.50;;;7.90;99.90;;;;;;5057269;28;20649;-83
2022/03/17 03:46:51;;;;;;;40.20;36.60;;;8.20;99.90;;;;;;5060173;28;21501;-84
2022/03/17 03:49:19;;;;;;;44.50;40.40;;;7.70;99.90;;;;;;5060210;28;20624;-82
2022/03/17 03:51:45;;;;;;;38.33;34.87;;;7.90;99.90;;;;;;5070237;28;20625;-84
2022/03/17 03:54:17;;;;;;;42.90;39.20;;;8.10;99.90;;;;;;5068940;28;20639;-84
2022/03/17 03:56:46;;;;;;;40.90;37.30;;;7.70;99.90;;;;;;5063733;28;20609;-84
2022/03/17 03:59:17;;;;;;;41.00;37.50;;;7.90;99.90;;;;;;5063908;28;20624;-84
2022/03/17 04:01:43;;;;;;;40.63;37.20;;;8.00;99.90;;;;;;5047837;28;21009;-84
2022/03/17 04:04:15;;;;;;;40.37;36.80;;;7.60;99.90;;;;;;5052257;28;21140;-84
2022/03/17 04:06:44;;;;;;;41.00;37.23;;;7.60;99.90;;;;;;5045691;28;20665;-83
2022/03/17 04:09:11;;;;;;;41.63;37.73;;;7.90;99.90;;;;;;5045587;28;20729;-83
2022/03/17 04:11:39;;;;;;;43.17;39.57;;;8.10;99.90;;;;;;5046983;28;21056;-84
2022/03/17 04:14:06;;;;;;;40.30;36.90;;;8.00;99.90;;;;;;5054987;28;20645;-84
2022/03/17 04:16:33;;;;;;;41.20;37.50;;;8.00;99.90;;;;;;5047273;28;20760;-83
2022/03/17 04:19:00;;;;;;;41.43;37.83;;;8.20;99.90;;;;;;5050615;28;20940;-84
2022/03/17 04:21:28;;;;;;;41.20;37.60;;;8.20;99.90;;;;;;5049195;28;20657;-85
2022/03/17 04:23:55;;;;;;;41.23;37.63;;;8.30;99.90;;;;;;5050893;28;20636;-84
2022/03/17 04:26:21;;;;;;;39.03;35.63;;;8.00;99.90;;;;;;5052859;28;20670;-83
2022/03/17 04:28:48;;;;;;;43.63;39.87;;;8.10;99.90;;;;;;5056006;28;20632;-83
2022/03/17 04:31:15;;;;;;;40.87;37.13;;;8.20;99.90;;;;;;5052356;28;20657;-84
2022/03/17 04:33:42;;;;;;;44.10;40.20;;;8.10;99.90;;;;;;5053485;28;20636;-83
2022/03/17 04:36:10;;;;;;;41.83;38.17;;;8.30;99.90;;;;;;5043636;28;21141;-84
2022/03/17 04:38:38;;;;;;;39.20;35.80;;;8.00;99.90;;;;;;5054028;28;20640;-83
2022/03/17 04:41:05;;;;;;;40.10;36.47;;;8.20;99.90;;;;;;5037991;28;20692;-84
2022/03/17 04:43:32;;;;;;;42.20;38.10;;;7.60;99.90;;;;;;5045381;28;20981;-84
2022/03/17 04:46:00;;;;;;;42.47;38.30;;;7.70;99.90;;;;;;5052268;28;21066;-85
2022/03/17 04:48:27;;;;;;;42.60;38.27;;;7.70;99.90;;;;;;5051634;28;20629;-83
2022/03/17 04:50:54;;;;;;;40.43;36.80;;;8.20;99.90;;;;;;5051523;28;20660;-83
2022/03/17 04:53:32;;;;;;;40.83;37.23;;;8.20;99.90;;;;;;5040493;28;20995;-84
2022/03/17 04:56:02;;;;;;;38.43;35.23;;;7.80;99.90;;;;;;5054706;28;20632;-84
2022/03/17 04:58:30;;;;;;;40.40;36.83;;;8.00;99.90;;;;;;5049911;28;20648;-84
2022/03/17 05:00:57;;;;;;;40.60;37.00;;;8.20;99.90;;;;;;5051846;28;20756;-83
2022/03/17 05:03:25;;;;;;;39.93;36.33;;;8.00;99.90;;;;;;5046294;28;20638;-84
2022/03/17 05:05:52;;;;;;;40.93;37.53;;;7.80;99.90;;;;;;5048299;28;20672;-84
2022/03/17 05:08:19;;;;;;;39.30;35.80;;;8.20;99.90;;;;;;5051751;28;20709;-84
2022/03/17 05:10:47;;;;;;;39.03;35.73;;;7.90;99.90;;;;;;5053213;28;20654;-84
2022/03/17 05:13:18;;;;;;;40.57;36.77;;;7.80;99.90;;;;;;5053966;28;20633;-84
2022/03/17 05:15:44;;;;;;;39.83;36.33;;;7.60;99.90;;;;;;5052601;28;20662;-83
2022/03/17 05:18:11;;;;;;;40.07;36.57;;;8.20;99.90;;;;;;5046771;28;20700;-84
2022/03/17 05:20:40;;;;;;;39.40;35.80;;;8.00;99.90;;;;;;5060439;28;21497;-84
2022/03/17 05:23:08;;;;;;;40.50;36.80;;;7.70;99.90;;;;;;5048711;28;20737;-83
2022/03/17 05:25:35;;;;;;;39.07;35.23;;;7.60;99.90;;;;;;5056012;28;21394;-84
2022/03/17 05:28:03;;;;;;;39.90;36.37;;;7.90;99.90;;;;;;5046563;28;20645;-84
2022/03/17 05:30:31;;;;;;;40.97;37.40;;;8.00;99.90;;;;;;5046509;28;20852;-83
2022/03/17 05:32:59;;;;;;;40.17;36.83;;;8.10;99.90;;;;;;5054012;28;20635;-83
2022/03/17 05:35:26;;;;;;;40.77;37.07;;;8.00;99.90;;;;;;5049316;28;20708;-83
2022/03/17 05:37:54;;;;;;;39.80;36.37;;;8.00;99.90;;;;;;5057189;28;20976;-84
2022/03/17 05:40:23;;;;;;;40.57;37.20;;;8.00;99.90;;;;;;5048384;28;20667;-83
2022/03/17 05:42:52;;;;;;;42.83;39.17;;;8.10;99.90;;;;;;5059064;28;20618;-83
2022/03/17 05:45:20;;;;;;;37.83;34.53;;;8.10;99.90;;;;;;5045307;28;20661;-85
2022/03/17 05:47:49;;;;;;;39.00;35.57;;;7.90;99.90;;;;;;5046390;28;20664;-83
2022/03/17 05:50:18;;;;;;;41.10;37.40;;;8.30;99.90;;;;;;5047752;28;20658;-84
2022/03/17 05:52:45;;;;;;;41.97;38.47;;;8.30;99.90;;;;;;5049982;28;20626;-84
2022/03/17 05:55:14;;;;;;;45.67;41.53;;;7.70;99.90;;;;;;5050621;28;21199;-83
2022/03/17 05:57:42;;;;;;;44.20;40.30;;;7.80;99.90;;;;;;5047490;28;20630;-83
2022/03/17 06:00:12;;;;;;;43.10;39.10;;;8.20;99.90;;;;;;5047531;28;20660;-83
2022/03/17 06:02:40;;;;;;;41.43;37.70;;;8.20;99.90;;;;;;5047525;28;20713;-85
2022/03/17 06:05:11;;;;;;;41.47;37.57;;;8.30;99.90;;;;;;5042625;28;20622;-83
2022/03/17 06:07:39;;;;;;;41.97;38.20;;;8.20;99.90;;;;;;5037067;28;20781;-83
2022/03/17 06:10:07;;;;;;;41.37;37.73;;;7.70;99.90;;;;;;5041010;28;20661;-85
2022/03/17 06:12:34;;;;;;;44.57;40.63;;;7.90;99.90;;;;;;5044347;28;20726;-85
2022/03/17 06:15:02;;;;;;;42.60;38.53;;;7.90;99.90;;;;;;5041768;28;20637;-84
2022/03/17 06:17:40;;;;;;;43.53;39.63;;;7.70;99.90;;;;;;5040649;28;20643;-85
2022/03/17 06:20:10;;;;;;;44.10;39.80;;;8.20;99.90;;;;;;5040550;28;20673;-85
2022/03/17 06:22:41;;;;;;;43.53;39.40;;;8.30;99.90;;;;;;5038568;28;20640;-84
2022/03/17 06:25:10;;;;;;;43.03;38.93;;;8.50;99.90;;;;;;5041766;28;20634;-85
2022/03/17 06:27:37;;;;;;;45.63;41.43;;;8.40;99.90;;;;;;5042934;28;21042;-85
2022/03/17 06:30:05;;;;;;;42.37;38.47;;;8.30;99.90;;;;;;5049319;28;20649;-84
2022/03/17 06:32:33;;;;;;;42.20;38.50;;;8.30;99.90;;;;;;5043121;28;20649;-84
2022/03/17 06:35:00;;;;;;;44.37;40.30;;;7.70;99.90;;;;;;5044021;28;20667;-83
2022/03/17 06:37:29;;;;;;;43.00;39.13;;;8.40;99.90;;;;;;5047217;28;20617;-84
2022/03/17 06:39:56;;;;;;;41.90;38.30;;;8.20;99.90;;;;;;5051464;28;20657;-83
2022/03/17 06:42:23;;;;;;;42.57;38.90;;;8.50;99.90;;;;;;5051119;28;21164;-85
2022/03/17 06:44:50;;;;;;;42.43;38.57;;;8.30;99.90;;;;;;5044847;28;20622;-84
2022/03/17 06:47:17;;;;;;;42.83;38.77;;;8.00;99.90;;;;;;5050571;28;20666;-84
2022/03/17 06:49:44;;;;;;;44.20;40.30;;;8.30;99.90;;;;;;5047998;28;20671;-83
2022/03/17 06:52:10;;;;;;;43.00;38.70;;;7.60;99.90;;;;;;5052451;28;20642;-84
2022/03/17 06:54:39;;;;;;;43.07;39.03;;;8.20;99.90;;;;;;5049131;28;20641;-84
2022/03/17 06:57:05;;;;;;;41.97;37.93;;;8.40;99.90;;;;;;5056686;28;20644;-83
2022/03/17 06:59:32;;;;;;;40.30;36.90;;;8.20;99.90;;;;;;5054486;28;20660;-83
2022/03/17 07:02:00;;;;;;;41.10;37.10;;;8.10;99.90;;;;;;5045450;28;20621;-85
2022/03/17 07:04:27;;;;;;;40.23;36.70;;;8.70;99.90;;;;;;5056492;28;20629;-85
2022/03/17 07:06:54;;;;;;;40.13;36.17;;;8.70;99.90;;;;;;5055620;28;20660;-85
2022/03/17 07:09:20;;;;;;;37.70;34.27;;;8.60;99.90;;;;;;5049543;28;20696;-84
2022/03/17 07:11:48;;;;;;;40.70;36.80;;;8.60;99.90;;;;;;5042192;28;20656;-83
2022/03/17 07:14:15;;;;;;;39.43;35.90;;;8.80;99.90;;;;;;5046789;28;20629;-84
2022/03/17 07:16:43;;;;;;;38.50;35.00;;;8.60;99.90;;;;;;5051316;28;20629;-85
2022/03/17 07:19:10;;;;;;;38.90;35.40;;;8.50;99.90;;;;;;5047930;28;20655;-84
2022/03/17 07:21:37;;;;;;;39.90;35.77;;;8.80;99.90;;;;;;5040908;28;20633;-84
2022/03/17 07:24:05;;;;;;;39.20;35.77;;;8.80;99.90;;;;;;5045460;28;20634;-84
2022/03/17 07:26:32;;;;;;;39.40;35.60;;;8.80;99.90;;;;;;5045190;28;21084;-85
2022/03/17 07:29:02;;;;;;;39.27;35.33;;;8.80;99.90;;;;;;5048237;28;20638;-84
2022/03/17 07:31:29;;;;;;;39.20;35.60;;;8.90;99.90;;;;;;5045622;28;20660;-85
2022/03/17 07:33:56;;;;;;;40.60;36.90;;;9.00;99.90;;;;;;5048936;28;20625;-84
2022/03/17 07:36:23;;;;;;;37.07;33.67;;;8.80;99.90;;;;;;5047312;28;20620;-84
2022/03/17 07:38:51;;;;;;;41.73;37.53;;;8.80;99.90;;;;;;5053067;28;20628;-85
2022/03/17 07:41:17;;;;;;;38.23;34.43;;;9.10;99.90;;;;;;5052129;28;20740;-85
2022/03/17 07:43:45;;;;;;;40.53;36.87;;;9.20;99.90;;;;;;5044428;28;20986;-85
2022/03/17 07:46:14;;;;;;;39.33;35.60;;;8.80;99.90;;;;;;5046116;28;20622;-86
2022/03/17 07:48:43;;;;;;;40.20;35.30;;;9.30;99.90;;;;;;5045027;28;21005;-85
2022/03/17 07:51:10;;;;;;;36.33;32.93;;;9.10;99.90;;;;;;5045720;28;20644;-82
2022/03/17 07:53:39;;;;;;;38.30;34.77;;;8.90;99.90;;;;;;5044220;28;21231;-84
2022/03/17 07:56:07;;;;;;;37.63;34.03;;;9.40;99.90;;;;;;5046943;28;20626;-84
2022/03/17 07:58:34;;;;;;;37.80;34.10;;;9.40;99.90;;;;;;5041571;28;20630;-84
2022/03/17 08:01:02;;;;;;;38.17;34.47;;;9.00;99.90;;;;;;5052102;28;20680;-85
2022/03/17 08:03:30;;;;;;;37.73;34.23;;;9.70;99.90;;;;;;5046973;28;20630;-84
2022/03/17 08:05:57;;;;;;;38.60;34.80;;;9.20;99.90;;;;;;5049158;28;20652;-84
2022/03/17 08:08:24;;;;;;;41.00;37.20;;;9.00;99.90;;;;;;5040398;28;20659;-85
2022/03/17 08:10:52;;;;;;;39.20;35.70;;;9.30;99.90;;;;;;5044331;28;20692;-84
2022/03/17 08:13:18;;;;;;;39.70;35.93;;;9.40;99.90;;;;;;5039944;28;20642;-85
2022/03/17 08:15:46;;;;;;;38.67;34.97;;;9.70;99.90;;;;;;5046702;28;20664;-85
2022/03/17 08:18:13;;;;;;;39.87;35.93;;;9.50;99.90;;;;;;5046994;28;20610;-85
2022/03/17 08:20:42;;;;;;;41.43;37.23;;;9.20;99.90;;;;;;5055703;28;20652;-85
2022/03/17 08:23:10;;;;;;;38.10;34.40;;;8.90;99.90;;;;;;5047028;28;20662;-84
2022/03/17 08:25:37;;;;;;;38.97;35.40;;;9.20;99.90;;;;;;5048983;28;20757;-84
2022/03/17 08:28:05;;;;;;;40.70;35.97;;;9.50;99.90;;;;;;5051992;28;21094;-84
2022/03/17 08:30:33;;;;;;;38.00;34.40;;;9.60;99.90;;;;;;5048331;28;21284;-85
2022/03/17 08:33:00;;;;;;;38.93;35.07;;;9.60;99.90;;;;;;5049267;28;20665;-84
2022/03/17 08:35:27;;;;;;;37.70;34.23;;;9.60;99.90;;;;;;5050113;28;20629;-84
2022/03/17 08:37:57;;;;;;;41.77;37.90;;;9.50;99.90;;;;;;5059022;28;20629;-84
2022/03/17 08:40:24;;;;;;;39.20;35.13;;;9.40;99.90;;;;;;5043057;28;20619;-85
2022/03/17 08:42:51;;;;;;;40.27;36.17;;;9.40;99.90;;;;;;5039965;28;21092;-85
2022/03/17 08:50:48;;;;;;;39.33;35.50;;;9.50;99.90;;;;;;5046860;28;21157;-85
2022/03/17 08:53:16;;;;;;;41.10;37.50;;;9.80;99.90;;;;;;5045203;28;20650;-84
2022/03/17 08:55:44;;;;;;;39.33;35.97;;;9.60;99.90;;;;;;5044129;28;20653;-84
2022/03/17 08:58:12;;;;;;;39.10;35.07;;;9.90;99.90;;;;;;5046884;28;20721;-85
2022/03/17 09:00:40;;;;;;;37.50;33.93;;;9.60;99.90;;;;;;5041954;28;20691;-85
2022/03/17 09:03:08;;;;;;;39.27;35.47;;;9.80;99.90;;;;;;5039565;28;20753;-85
2022/03/17 09:05:35;;;;;;;40.30;36.40;;;9.50;99.90;;;;;;5049158;28;20625;-85
2022/03/17 09:08:04;;;;;;;38.87;35.07;;;9.70;99.90;;;;;;5046007;28;20688;-85
2022/03/17 09:10:35;;;;;;;41.30;37.20;;;9.30;99.90;;;;;;5041015;28;21180;-84
2022/03/17 09:13:07;;;;;;;38.70;35.00;;;9.40;99.90;;;;;;5036098;28;20659;-85
2022/03/17 09:15:35;;;;;;;41.73;37.53;;;9.70;99.90;;;;;;5045895;28;20633;-84
2022/03/17 09:18:02;;;;;;;39.80;36.10;;;9.40;99.90;;;;;;5044262;28;20615;-84
2022/03/17 09:20:37;;;;;;;40.23;36.33;;;9.70;99.90;;;;;;5054296;28;20631;-84
2022/03/17 09:23:04;;;;;;;39.73;36.03;;;10.10;99.90;;;;;;5056203;28;20668;-84
2022/03/17 09:25:33;;;;;;;40.37;36.67;;;10.30;99.90;;;;;;5064246;28;20653;-84
2022/03/17 09:28:02;;;;;;;37.90;34.30;;;10.50;99.90;;;;;;5066425;28;20655;-84
2022/03/17 09:30:29;;;;;;;38.77;34.97;;;10.30;99.90;;;;;;5063711;28;20611;-84
2022/03/17 09:32:58;;;;;;;38.47;34.63;;;10.30;99.90;;;;;;5046451;28;20644;-83
2022/03/17 09:35:26;;;;;;;36.63;33.17;;;10.40;99.90;;;;;;5046806;28;20642;-83
2022/03/17 09:37:53;;;;;;;36.60;33.20;;;10.40;99.90;;;;;;5050086;28;20696;-84
2022/03/17 09:40:20;;;;;;;38.93;34.93;;;10.50;99.90;;;;;;5040429;28;20625;-84
2022/03/17 09:42:47;;;;;;;42.10;37.80;;;10.60;99.90;;;;;;5048975;28;21498;-83
2022/03/17 09:45:16;;;;;;;39.53;35.23;;;10.50;99.90;;;;;;5043339;28;20634;-84
2022/03/17 09:47:44;;;;;;;37.70;34.00;;;10.50;99.90;;;;;;5051955;28;20669;-83
2022/03/17 09:50:16;;;;;;;40.00;36.30;;;10.70;99.90;;;;;;5050098;28;21255;-85
2022/03/17 09:52:47;;;;;;;39.40;35.60;;;10.60;99.90;;;;;;5052078;28;21068;-85
2022/03/17 09:55:14;;;;;;;40.60;36.60;;;10.80;99.90;;;;;;5044261;28;21084;-85
2022/03/17 09:57:42;;;;;;;40.37;36.50;;;10.20;99.90;;;;;;5041188;28;20648;-83
2022/03/17 10:00:12;;;;;;;37.60;34.10;;;10.60;99.90;;;;;;5039041;28;20998;-84
2022/03/17 10:02:41;;;;;;;39.00;35.30;;;10.70;99.90;;;;;;5049021;28;20685;-84
2022/03/17 10:05:11;;;;;;;39.13;35.43;;;10.60;99.90;;;;;;5043081;28;20634;-84
2022/03/17 10:07:39;;;;;;;38.67;34.87;;;10.60;99.90;;;;;;5046125;28;20665;-84
2022/03/17 10:10:07;;;;;;;42.47;36.33;;;10.20;99.90;;;;;;5047314;28;20641;-83
2022/03/17 10:12:34;;;;;;;41.87;37.83;;;10.70;99.90;;;;;;5051850;28;20653;-83
2022/03/17 10:15:02;;;;;;;38.73;35.13;;;10.70;99.90;;;;;;5042979;28;20633;-83
2022/03/17 10:17:32;;;;;;;39.17;35.57;;;11.00;99.90;;;;;;5042427;28;20691;-83
2022/03/17 10:20:17;;;;;;;40.33;36.50;;;11.10;99.90;;;;;;5044254;28;20622;-85
2022/03/17 10:22:46;;;;;;;38.17;34.60;;;11.40;99.90;;;;;;5044589;28;21593;-85
2022/03/17 10:25:14;;;;;;;38.23;34.73;;;11.50;99.90;;;;;;5050762;28;20676;-83
2022/03/17 10:27:44;;;;;;;37.00;33.50;;;11.70;99.90;;;;;;5043047;28;20692;-85
2022/03/17 10:30:12;;;;;;;39.57;35.63;;;11.70;99.90;;;;;;5048311;28;20978;-83
2022/03/17 10:32:39;;;;;;;38.80;35.00;;;11.50;99.90;;;;;;5041695;28;20671;-85
2022/03/17 10:35:08;;;;;;;37.60;34.10;;;11.60;99.90;;;;;;5045921;28;20617;-85
2022/03/17 10:37:37;;;;;;;37.37;33.77;;;11.80;99.90;;;;;;5052595;28;20630;-86
2022/03/17 10:40:11;;;;;;;40.33;36.43;;;11.80;99.90;;;;;;5042222;28;21243;-86
2022/03/17 10:42:39;;;;;;;37.67;34.27;;;11.90;99.90;;;;;;5052186;28;20649;-86
2022/03/17 10:45:08;;;;;;;38.73;34.97;;;11.90;99.90;;;;;;5051106;28;20617;-86
2022/03/17 10:47:37;;;;;;;37.60;33.70;;;11.80;99.90;;;;;;5053206;28;20660;-85
2022/03/17 10:50:07;;;;;;;37.50;33.70;;;12.00;99.90;;;;;;5041916;28;20696;-85
2022/03/17 10:52:53;;;;;;;38.77;34.63;;;12.10;99.90;;;;;;5038885;28;20622;-85
2022/03/17 10:55:22;;;;;;;35.00;29.77;;;12.20;99.90;;;;;;5048787;28;20605;-85
2022/03/17 10:57:49;;;;;;;40.20;36.20;;;12.20;99.90;;;;;;5036890;28;20654;-85
2022/03/17 11:00:22;;;;;;;38.13;34.63;;;12.20;99.90;;;;;;5046681;28;21039;-85
2022/03/17 11:02:57;;;;;;;37.13;33.13;;;12.40;99.90;;;;;;5048859;28;20624;-85
2022/03/17 11:05:27;;;;;;;37.10;33.60;;;12.30;99.90;;;;;;5049957;28;20645;-85
2022/03/17 11:07:57;;;;;;;38.37;34.20;;;12.00;99.90;;;;;;5046056;28;20688;-85
2022/03/17 11:10:26;;;;;;;36.27;32.33;;;12.10;99.90;;;;;;5039395;28;20650;-85
2022/03/17 11:12:53;;;;;;;33.10;29.60;;;12.20;99.90;;;;;;5047952;28;20751;-84
2022/03/17 11:15:27;;;;;;;37.13;31.67;;;12.20;99.90;;;;;;5043950;28;20613;-85
2022/03/17 11:18:02;;;;;;;32.07;28.93;;;12.30;99.90;;;;;;5039355;28;20685;-84
2022/03/17 11:20:30;;;;;;;33.37;30.27;;;12.20;99.90;;;;;;5043794;28;20629;-84
2022/03/17 11:23:20;;;;;;;34.60;31.30;;;12.10;99.90;;;;;;5047001;28;20660;-84
2022/03/17 11:25:52;;;;;;;34.43;30.93;;;12.00;99.90;;;;;;5046938;28;20695;-84
2022/03/17 11:28:30;;;;;;;36.03;32.23;;;12.00;99.90;;;;;;5047248;28;20665;-84
2022/03/17 11:31:01;;;;;;;35.33;31.63;;;12.10;99.90;;;;;;5047693;28;20633;-84
2022/03/17 11:33:30;;;;;;;36.60;32.93;;;12.20;99.90;;;;;;5051271;28;20659;-84
2022/03/17 11:35:59;;;;;;;35.47;31.70;;;12.20;99.90;;;;;;5046477;28;20728;-84
2022/03/17 11:38:30;;;;;;;36.50;33.00;;;12.40;99.90;;;;;;5058877;28;21014;-84
2022/03/17 11:41:10;;;;;;;37.57;33.80;;;12.40;99.90;;;;;;5050094;28;20625;-84
2022/03/17 11:44:05;;;;;;;36.47;32.67;;;12.20;99.90;;;;;;5052081;28;20688;-84
2022/03/17 11:46:43;;;;;;;38.20;33.50;;;12.40;99.90;;;;;;5045298;28;20685;-84
2022/03/17 11:49:24;;;;;;;36.70;32.73;;;12.30;99.90;;;;;;5042638;28;20672;-85
2022/03/17 11:51:56;;;;;;;37.53;33.80;;;12.30;99.90;;;;;;5040301;28;20617;-85
2022/03/17 11:54:24;;;;;;;40.30;36.10;;;12.30;99.90;;;;;;5042009;28;20672;-84
2022/03/17 11:56:54;;;;;;;40.60;36.60;;;12.30;99.90;;;;;;5040132;28;20623;-84
2022/03/17 11:59:23;;;;;;;37.93;34.20;;;12.10;99.90;;;;;;5046170;28;20740;-84
2022/03/17 12:01:50;;;;;;;36.90;33.30;;;12.00;99.90;;;;;;5050043;28;20649;-84
2022/03/17 12:04:22;;;;;;;39.10;35.07;;;12.00;99.90;;;;;;5061813;28;20977;-85
2022/03/17 12:06:53;;;;;;;39.67;35.37;;;12.00;99.90;;;;;;5046022;28;20648;-85
2022/03/17 12:09:32;;;;;;;38.70;34.70;;;12.10;99.90;;;;;;5043561;28;20761;-84
2022/03/17 12:11:59;;;;;;;38.30;34.40;;;12.20;99.90;;;;;;5044472;28;21005;-85
2022/03/17 12:14:28;;;;;;;39.33;35.23;;;12.10;99.90;;;;;;5047153;28;20661;-85
2022/03/17 12:16:57;;;;;;;39.50;35.40;;;12.10;99.90;;;;;;5048904;28;20995;-83
2022/03/17 12:19:32;;;;;;;38.90;34.80;;;12.10;99.90;;;;;;5047304;28;20636;-84
2022/03/17 12:22:10;;;;;;;40.27;35.23;;;11.90;99.90;;;;;;5048835;28;20626;-84
2022/03/17 12:24:45;;;;;;;41.33;36.93;;;11.90;99.90;;;;;;5037258;28;20991;-83
2022/03/17 12:27:17;;;;;;;40.00;35.80;;;12.00;99.90;;;;;;5046837;28;20695;-84
2022/03/17 12:29:46;;;;;;;42.13;37.97;;;12.10;99.90;;;;;;5050914;28;21026;-83
2022/03/17 12:32:16;;;;;;;41.13;37.13;;;12.00;99.90;;;;;;5052813;28;20614;-85
2022/03/17 12:34:46;;;;;;;39.77;35.87;;;12.00;99.90;;;;;;5052035;28;20645;-83
2022/03/17 12:37:13;;;;;;;40.47;36.30;;;12.00;99.90;;;;;;5059843;28;20622;-83
2022/03/17 12:39:41;;;;;;;41.77;37.40;;;12.10;99.90;;;;;;5058160;28;20618;-82
2022/03/17 12:42:18;;;;;;;41.87;37.87;;;12.20;99.90;;;;;;5053318;28;20638;-83
2022/03/17 12:44:50;;;;;;;38.60;34.83;;;12.20;99.90;;;;;;5057828;28;21148;-84
2022/03/17 12:47:19;;;;;;;38.43;34.50;;;12.30;99.90;;;;;;5055053;28;20627;-85
2022/03/17 12:49:46;;;;;;;38.23;34.67;;;12.30;99.90;;;;;;5058240;28;20677;-85
2022/03/17 12:52:17;;;;;;;39.00;35.27;;;12.40;99.90;;;;;;5056765;28;20610;-85
2022/03/17 12:54:46;;;;;;;39.00;35.30;;;12.40;99.90;;;;;;5047221;28;21042;-85
2022/03/17 12:57:14;;;;;;;39.43;35.57;;;12.20;99.90;;;;;;5039588;28;20630;-85